KBPT/BPT METAR and TAF weather

Enter ICAO airport designator
Station Type Date Time Source
KBPT METAR 2021/07/30 23:53 UTC NOAA

KBPT 302353Z 21004KT 10SM CLR 31/26 A3001 RMK AO2 SLP161 60005 T03060261 10333 20283 56009


Station Type Date Time Source
KBPT Decoded METAR 2021/07/30 23:53 UTC NOAA

SOUTHEAST TEXAS RGNL AIRPORT, TX, United States (KBPT) 29-95N 094-08W 5M
Jul 30, 2021 - 07:53 PM EDT / 2021.07.30 2353 UTC
Wind: from the SSW (210 degrees) at 5 MPH (4 KT):0
Visibility: 10 mile(s):0
Sky conditions: clear
Temperature: 87.1 F (30.6 C)
Heat index: 100.9 F (38.3 C):1
Dew Point: 79.0 F (26.1 C)
Relative Humidity: 76%
Pressure (altimeter): 30.01 in. Hg (1016 hPa)
Pressure tendency: 0.03 inches (0.9 hPa) lower than three hours ago
ob: KBPT 302353Z 21004KT 10SM CLR 31/26 A3001 RMK AO2 SLP161 60005 T03060261 10333 20283 56009
cycle: 0

Station Type Date Time Source
KBPT TAF 2021/07/30 18:40 UTC NOAA

TAF KBPT 301737Z 3018/3118 19006KT P6SM SCT040 BKN110
FM302100 VRB05KT P6SM VCTS FEW040CB SCT110
FM310200 VRB03KT P6SM FEW030 FEW110
FM311200 27004KT P6SM SCT250

Example: see airport list